KUIL/UIL METAR and TAF weather

Enter ICAO airport designator
Station Type Date Time Source
KUIL METAR 2020/07/06 02:53 UTC NOAA

KUIL 060253Z AUTO 26004KT 10SM OVC046 14/11 A3014 RMK AO2 SLP207 T01440106 56010 $


Station Type Date Time Source
KUIL Decoded METAR 2020/07/06 02:53 UTC NOAA

QUILLAYUTE STATE AIRPORT, WA, United States (KUIL) 47-56N 124-34W 54M
Jul 05, 2020 - 10:53 PM EDT / 2020.07.06 0253 UTC
Wind: from the W (260 degrees) at 5 MPH (4 KT):0
Visibility: 10 mile(s):0
Sky conditions: overcast
Temperature: 57.9 F (14.4 C)
Dew Point: 51.1 F (10.6 C)
Relative Humidity: 77%
Pressure (altimeter): 30.14 in. Hg (1020 hPa)
Pressure tendency: 0.03 inches (1.0 hPa) lower than three hours ago
ob: KUIL 060253Z AUTO 26004KT 10SM OVC046 14/11 A3014 RMK AO2 SLP207 T01440106 56010
cycle: 3

Station Type Date Time Source
KUIL TAF UTC NOAA

Error!

Example: see airport list